Terminal Aerodrome Forecast
Issued by NWS Sioux Falls, SD

Home | Current Version | Previous Version | Graphics & Text | Print | Product List | Glossary On
Versions: 1 2 3 4 5 6 7 8 9 10 11 12 13 14 15 16 17 18
000
FTUS43 KFSD 292140 AAB
TAFHON
TAF AMD
KHON 292140Z 2922/3018 35005KT P6SM VCTS SCT035CB
     FM300000 35006KT P6SM BKN250
     FM301000 34005KT 4SM BR SKC
     FM301200 34005KT 2SM BR SKC
     FM301300 35004KT 4SM BR SKC
     FM301400 VRB03KT P6SM SKC=

USA.gov is the U.S. government's official web portal to all federal, state and local government web resources and services.